Terminal Aerodrome Forecast
Issued by NWS Boston, MA

Home | Current Version | Previous Version | Text Only | Print | Product List | Glossary On
Versions: 1 2 3 4 5 6 7 8 9 10 11 12 13 14 15 16 17 18 19 20 21 22 23 24 25 26 27 28 29
000
FTUS41 KBOX 310530
TAFORH
TAF
KORH 310530Z 3106/0106 VRB03KT P6SM OVC100
      TEMPO 3106/3110 -SHRA
     FM311000 VRB03KT 3SM BR OVC015
     FM311400 06006KT P6SM OVC008
     FM311900 10007KT P6SM OVC015
     FM312200 10006KT P6SM OVC025
     FM010100 09006KT P6SM OVC040=

USA.gov is the U.S. government's official web portal to all federal, state and local government web resources and services.